Bristol, Rhode Island
Current Conditions -  °F | °C
As of 12:51 AM on Tuesday 27 Jan 2015 (Local Time) from KPVD Reporting Station
Moderate Snow Moderate Snow  
Wind Chill:   Ceiling: 1200
Heat Index: 19°   Visibility: 0.5mi
Dew Point: 15°   Wind: 29mph
Humidity: 85%   Direction: 10°N
Pressure: 29.65"   Gusts: 39mph
Location:  41.67°N, 71.28°W
Report Text: KPVD 270551Z 01025G34KT 1/2SM R05/3000VP6000FT SN BLSN FZFG VV012 M07/M09 A2965 RMK AO2 PK WND 01038/0538 SLP039 P0000 60009 T10721094 11022 21072 56027 $
Loading
Personal Weather Stations






























Interactive Weather Map New forecast layout! Learn more

10-Day Weather Forecast

Advertisements
Track Severe Weather on mobile